sensor_id;sensor_type;location;lat;lon;timestamp;pressure;altitude;pressure_sealevel;temperature;humidity
49063;BME280;34876;51.464;-0.150;2023-05-19T00:03:25;102715.33;;;19.80;41.67
49063;BME280;34876;51.464;-0.150;2023-05-19T00:05:56;102712.82;;;19.83;41.59
49063;BME280;34876;51.464;-0.150;2023-05-19T00:08:30;102712.21;;;19.33;42.64
49063;BME280;34876;51.464;-0.150;2023-05-19T00:11:01;102710.52;;;19.74;41.78
49063;BME280;34876;51.464;-0.150;2023-05-19T00:13:32;102708.76;;;19.80;41.58
49063;BME280;34876;51.464;-0.150;2023-05-19T00:16:01;102709.85;;;19.70;41.75
49063;BME280;34876;51.464;-0.150;2023-05-19T00:18:31;102708.74;;;19.71;41.71
49063;BME280;34876;51.464;-0.150;2023-05-19T00:21:03;102709.17;;;19.61;42.00
49063;BME280;34876;51.464;-0.150;2023-05-19T00:23:35;102709.63;;;19.81;41.59
49063;BME280;34876;51.464;-0.150;2023-05-19T00:26:05;102711.06;;;19.80;41.57
49063;BME280;34876;51.464;-0.150;2023-05-19T00:28:34;102709.98;;;19.82;41.49
49063;BME280;34876;51.464;-0.150;2023-05-19T00:31:05;102711.73;;;19.82;41.53
49063;BME280;34876;51.464;-0.150;2023-05-19T00:33:35;102715.72;;;19.84;41.46
49063;BME280;34876;51.464;-0.150;2023-05-19T00:36:11;102716.91;;;19.83;41.49
49063;BME280;34876;51.464;-0.150;2023-05-19T00:38:45;102715.32;;;19.80;41.54
49063;BME280;34876;51.464;-0.150;2023-05-19T00:41:15;102710.03;;;19.82;41.47
49063;BME280;34876;51.464;-0.150;2023-05-19T00:43:45;102708.13;;;19.84;41.49
49063;BME280;34876;51.464;-0.150;2023-05-19T00:46:17;102707.59;;;19.85;41.38
49063;BME280;34876;51.464;-0.150;2023-05-19T00:48:48;102706.05;;;19.80;41.51
49063;BME280;34876;51.464;-0.150;2023-05-19T00:51:18;102704.33;;;19.80;41.52
49063;BME280;34876;51.464;-0.150;2023-05-19T00:53:53;102709.15;;;19.84;41.47
49063;BME280;34876;51.464;-0.150;2023-05-19T00:56:28;102714.25;;;19.80;41.53
49063;BME280;34876;51.464;-0.150;2023-05-19T00:59:01;102713.94;;;19.81;41.49
49063;BME280;34876;51.464;-0.150;2023-05-19T01:01:32;102708.85;;;19.77;41.59
49063;BME280;34876;51.464;-0.150;2023-05-19T01:04:01;102708.18;;;19.77;41.58
49063;BME280;34876;51.464;-0.150;2023-05-19T01:06:33;102710.68;;;19.59;41.99
49063;BME280;34876;51.464;-0.150;2023-05-19T01:09:11;102713.93;;;19.74;41.62
49063;BME280;34876;51.464;-0.150;2023-05-19T01:11:41;102713.59;;;19.80;41.50
49063;BME280;34876;51.464;-0.150;2023-05-19T01:14:11;102711.44;;;19.80;41.47
49063;BME280;34876;51.464;-0.150;2023-05-19T01:16:49;102713.71;;;19.80;41.52
49063;BME280;34876;51.464;-0.150;2023-05-19T01:19:35;102718.16;;;19.77;41.57
49063;BME280;34876;51.464;-0.150;2023-05-19T01:22:21;102715.97;;;19.79;41.51
49063;BME280;34876;51.464;-0.150;2023-05-19T01:25:13;102712.44;;;19.79;41.50
49063;BME280;34876;51.464;-0.150;2023-05-19T01:28:15;102711.69;;;19.81;41.47
49063;BME280;34876;51.464;-0.150;2023-05-19T01:31:00;102709.92;;;19.79;41.53
49063;BME280;34876;51.464;-0.150;2023-05-19T01:33:32;102711.36;;;19.81;41.44
49063;BME280;34876;51.464;-0.150;2023-05-19T01:36:03;102712.49;;;19.83;41.49
49063;BME280;34876;51.464;-0.150;2023-05-19T01:38:42;102713.55;;;19.81;41.46
49063;BME280;34876;51.464;-0.150;2023-05-19T01:41:14;102713.33;;;19.79;41.50
49063;BME280;34876;51.464;-0.150;2023-05-19T01:43:45;102709.98;;;19.73;41.63
49063;BME280;34876;51.464;-0.150;2023-05-19T01:46:16;102706.54;;;19.79;41.51
49063;BME280;34876;51.464;-0.150;2023-05-19T01:48:48;102698.47;;;19.68;40.75
49063;BME280;34876;51.464;-0.150;2023-05-19T01:51:18;102689.75;;;19.78;41.53
49063;BME280;34876;51.464;-0.150;2023-05-19T01:53:52;102690.39;;;19.82;41.38
49063;BME280;34876;51.464;-0.150;2023-05-19T01:56:31;102694.00;;;19.78;41.49
49063;BME280;34876;51.464;-0.150;2023-05-19T01:59:15;102703.71;;;19.78;41.51
49063;BME280;34876;51.464;-0.150;2023-05-19T02:01:52;102708.61;;;19.65;41.85
49063;BME280;34876;51.464;-0.150;2023-05-19T02:04:31;102704.44;;;19.44;42.27
49063;BME280;34876;51.464;-0.150;2023-05-19T02:07:09;102698.33;;;19.72;41.64
49063;BME280;34876;51.464;-0.150;2023-05-19T02:09:49;102698.32;;;19.76;41.58
49063;BME280;34876;51.464;-0.150;2023-05-19T02:12:24;102704.32;;;19.78;41.47
49063;BME280;34876;51.464;-0.150;2023-05-19T02:15:02;102707.39;;;19.79;41.49
49063;BME280;34876;51.464;-0.150;2023-05-19T02:17:34;102708.54;;;19.80;41.49
49063;BME280;34876;51.464;-0.150;2023-05-19T02:20:11;102710.62;;;19.76;41.58
49063;BME280;34876;51.464;-0.150;2023-05-19T02:22:42;102709.29;;;19.77;41.59
49063;BME280;34876;51.464;-0.150;2023-05-19T02:25:12;102703.99;;;19.78;41.53
49063;BME280;34876;51.464;-0.150;2023-05-19T02:27:41;102699.60;;;19.73;41.65
49063;BME280;34876;51.464;-0.150;2023-05-19T02:30:11;102693.56;;;19.76;41.56
49063;BME280;34876;51.464;-0.150;2023-05-19T02:32:42;102693.68;;;19.72;41.66
49063;BME280;34876;51.464;-0.150;2023-05-19T02:35:12;102688.57;;;19.74;41.62
49063;BME280;34876;51.464;-0.150;2023-05-19T02:37:48;102690.23;;;19.77;41.56
49063;BME280;34876;51.464;-0.150;2023-05-19T02:40:21;102693.16;;;19.72;41.63
49063;BME280;34876;51.464;-0.150;2023-05-19T02:42:56;102691.83;;;19.75;41.59
49063;BME280;34876;51.464;-0.150;2023-05-19T02:45:28;102691.67;;;19.68;41.73
49063;BME280;34876;51.464;-0.150;2023-05-19T02:48:02;102688.28;;;19.70;41.69
49063;BME280;34876;51.464;-0.150;2023-05-19T02:50:33;102689.46;;;19.72;41.68
49063;BME280;34876;51.464;-0.150;2023-05-19T02:53:03;102691.76;;;19.76;41.60
49063;BME280;34876;51.464;-0.150;2023-05-19T02:55:33;102694.58;;;19.75;41.65
49063;BME280;34876;51.464;-0.150;2023-05-19T02:58:10;102695.00;;;19.66;41.55
49063;BME280;34876;51.464;-0.150;2023-05-19T03:00:41;102693.89;;;19.72;41.69
49063;BME280;34876;51.464;-0.150;2023-05-19T03:03:11;102692.50;;;19.74;41.63
49063;BME280;34876;51.464;-0.150;2023-05-19T03:05:42;102688.50;;;19.74;41.64
49063;BME280;34876;51.464;-0.150;2023-05-19T03:08:12;102690.12;;;19.74;41.63
49063;BME280;34876;51.464;-0.150;2023-05-19T03:10:42;102690.32;;;19.75;41.62
49063;BME280;34876;51.464;-0.150;2023-05-19T03:13:12;102685.44;;;19.73;41.64
49063;BME280;34876;51.464;-0.150;2023-05-19T03:15:57;102686.16;;;19.72;41.68
49063;BME280;34876;51.464;-0.150;2023-05-19T03:18:28;102686.81;;;19.73;41.68
49063;BME280;34876;51.464;-0.150;2023-05-19T03:20:58;102685.38;;;19.72;41.75
49063;BME280;34876;51.464;-0.150;2023-05-19T03:23:28;102688.73;;;19.69;41.76
49063;BME280;34876;51.464;-0.150;2023-05-19T03:25:57;102685.52;;;19.69;41.78
49063;BME280;34876;51.464;-0.150;2023-05-19T03:28:27;102683.63;;;19.65;41.82
49063;BME280;34876;51.464;-0.150;2023-05-19T03:30:56;102682.36;;;19.64;41.84
49063;BME280;34876;51.464;-0.150;2023-05-19T03:33:26;102681.83;;;19.67;41.80
49063;BME280;34876;51.464;-0.150;2023-05-19T03:35:56;102681.22;;;19.68;41.79
49063;BME280;34876;51.464;-0.150;2023-05-19T03:38:26;102678.73;;;19.69;41.75
49063;BME280;34876;51.464;-0.150;2023-05-19T03:41:02;102675.63;;;19.69;41.70
49063;BME280;34876;51.464;-0.150;2023-05-19T03:43:37;102671.70;;;19.69;41.68
49063;BME280;34876;51.464;-0.150;2023-05-19T03:46:05;102670.59;;;19.67;41.76
49063;BME280;34876;51.464;-0.150;2023-05-19T03:48:35;102669.26;;;19.65;41.77
49063;BME280;34876;51.464;-0.150;2023-05-19T03:51:05;102670.23;;;19.64;41.78
49063;BME280;34876;51.464;-0.150;2023-05-19T03:53:48;102674.10;;;19.66;41.81
49063;BME280;34876;51.464;-0.150;2023-05-19T03:56:21;102671.85;;;19.66;41.76
49063;BME280;34876;51.464;-0.150;2023-05-19T03:58:51;102672.71;;;19.66;41.80
49063;BME280;34876;51.464;-0.150;2023-05-19T04:01:19;102677.14;;;19.66;41.75
49063;BME280;34876;51.464;-0.150;2023-05-19T04:03:47;102674.84;;;19.67;41.72
49063;BME280;34876;51.464;-0.150;2023-05-19T04:06:15;102671.91;;;19.66;41.80
49063;BME280;34876;51.464;-0.150;2023-05-19T04:08:45;102670.85;;;19.66;41.78
49063;BME280;34876;51.464;-0.150;2023-05-19T04:11:14;102671.47;;;19.68;41.74
49063;BME280;34876;51.464;-0.150;2023-05-19T04:13:44;102674.22;;;19.68;41.75
49063;BME280;34876;51.464;-0.150;2023-05-19T04:16:15;102672.63;;;19.66;41.73
49063;BME280;34876;51.464;-0.150;2023-05-19T04:18:44;102673.94;;;19.66;41.78
49063;BME280;34876;51.464;-0.150;2023-05-19T04:21:14;102674.07;;;19.67;41.74
49063;BME280;34876;51.464;-0.150;2023-05-19T04:23:44;102677.93;;;19.66;41.77
49063;BME280;34876;51.464;-0.150;2023-05-19T04:26:13;102678.73;;;19.67;41.70
49063;BME280;34876;51.464;-0.150;2023-05-19T04:29:11;102686.32;;;19.67;41.74
49063;BME280;34876;51.464;-0.150;2023-05-19T04:31:40;102688.98;;;19.66;41.78
49063;BME280;34876;51.464;-0.150;2023-05-19T04:34:15;102689.01;;;19.65;41.77
49063;BME280;34876;51.464;-0.150;2023-05-19T04:36:51;102686.36;;;19.67;41.69
49063;BME280;34876;51.464;-0.150;2023-05-19T04:39:25;102687.84;;;19.68;41.69
49063;BME280;34876;51.464;-0.150;2023-05-19T04:41:55;102690.87;;;19.66;41.73
49063;BME280;34876;51.464;-0.150;2023-05-19T04:44:25;102689.18;;;19.65;41.80
49063;BME280;34876;51.464;-0.150;2023-05-19T04:46:53;102687.56;;;19.65;41.82
49063;BME280;34876;51.464;-0.150;2023-05-19T04:49:24;102686.38;;;19.65;41.78
49063;BME280;34876;51.464;-0.150;2023-05-19T04:51:53;102687.74;;;19.62;41.80
49063;BME280;34876;51.464;-0.150;2023-05-19T04:54:23;102685.57;;;19.64;41.78
49063;BME280;34876;51.464;-0.150;2023-05-19T04:56:53;102686.54;;;19.65;41.75
49063;BME280;34876;51.464;-0.150;2023-05-19T04:59:24;102684.71;;;19.62;41.80
49063;BME280;34876;51.464;-0.150;2023-05-19T05:01:54;102681.40;;;19.62;41.82
49063;BME280;34876;51.464;-0.150;2023-05-19T05:04:23;102682.49;;;19.62;41.85
49063;BME280;34876;51.464;-0.150;2023-05-19T05:06:53;102682.57;;;19.63;41.81
49063;BME280;34876;51.464;-0.150;2023-05-19T05:09:23;102680.95;;;19.64;41.80
49063;BME280;34876;51.464;-0.150;2023-05-19T05:11:52;102681.69;;;19.66;41.72
49063;BME280;34876;51.464;-0.150;2023-05-19T05:14:27;102677.80;;;19.64;41.80
49063;BME280;34876;51.464;-0.150;2023-05-19T05:16:56;102680.68;;;19.64;41.81
49063;BME280;34876;51.464;-0.150;2023-05-19T05:19:27;102679.36;;;19.65;41.81
49063;BME280;34876;51.464;-0.150;2023-05-19T05:21:57;102680.95;;;19.64;41.75
49063;BME280;34876;51.464;-0.150;2023-05-19T05:24:26;102679.69;;;19.65;41.78
49063;BME280;34876;51.464;-0.150;2023-05-19T05:26:56;102676.72;;;19.65;41.80
49063;BME280;34876;51.464;-0.150;2023-05-19T05:29:26;102670.51;;;19.68;41.65
49063;BME280;34876;51.464;-0.150;2023-05-19T05:31:55;102671.83;;;19.67;41.74
49063;BME280;34876;51.464;-0.150;2023-05-19T05:34:25;102673.49;;;19.66;41.73
49063;BME280;34876;51.464;-0.150;2023-05-19T05:36:55;102670.24;;;19.68;41.70
49063;BME280;34876;51.464;-0.150;2023-05-19T05:39:23;102667.85;;;19.65;41.77
49063;BME280;34876;51.464;-0.150;2023-05-19T05:41:52;102667.23;;;19.63;41.86
49063;BME280;34876;51.464;-0.150;2023-05-19T05:44:22;102665.56;;;19.63;41.84
49063;BME280;34876;51.464;-0.150;2023-05-19T05:46:52;102664.41;;;19.60;41.87
49063;BME280;34876;51.464;-0.150;2023-05-19T05:49:23;102663.11;;;19.62;41.90
49063;BME280;34876;51.464;-0.150;2023-05-19T05:51:52;102661.46;;;19.61;41.89
49063;BME280;34876;51.464;-0.150;2023-05-19T05:54:27;102659.68;;;19.60;41.87
49063;BME280;34876;51.464;-0.150;2023-05-19T05:57:02;102657.75;;;19.59;41.92
49063;BME280;34876;51.464;-0.150;2023-05-19T05:59:31;102655.73;;;19.67;41.75
49063;BME280;34876;51.464;-0.150;2023-05-19T06:02:04;102655.71;;;19.69;41.70
49063;BME280;34876;51.464;-0.150;2023-05-19T06:04:33;102658.14;;;19.70;41.70
49063;BME280;34876;51.464;-0.150;2023-05-19T06:07:02;102657.14;;;19.66;41.78
49063;BME280;34876;51.464;-0.150;2023-05-19T06:09:31;102655.02;;;19.64;41.81
49063;BME280;34876;51.464;-0.150;2023-05-19T06:12:01;102652.01;;;19.56;41.99
49063;BME280;34876;51.464;-0.150;2023-05-19T06:14:36;102652.09;;;19.61;41.95
49063;BME280;34876;51.464;-0.150;2023-05-19T06:17:06;102651.77;;;19.47;42.21
49063;BME280;34876;51.464;-0.150;2023-05-19T06:19:36;102649.50;;;19.63;41.86
49063;BME280;34876;51.464;-0.150;2023-05-19T06:22:10;102654.90;;;19.62;41.90
49063;BME280;34876;51.464;-0.150;2023-05-19T06:24:40;102654.24;;;19.67;41.74
49063;BME280;34876;51.464;-0.150;2023-05-19T06:27:10;102656.24;;;19.65;41.84
49063;BME280;34876;51.464;-0.150;2023-05-19T06:29:39;102656.20;;;19.69;41.77
49063;BME280;34876;51.464;-0.150;2023-05-19T06:32:09;102658.93;;;19.70;41.76
49063;BME280;34876;51.464;-0.150;2023-05-19T06:34:43;102657.18;;;19.70;41.72
49063;BME280;34876;51.464;-0.150;2023-05-19T06:37:19;102656.55;;;19.69;41.71
49063;BME280;34876;51.464;-0.150;2023-05-19T06:39:52;102656.21;;;19.58;42.01
49063;BME280;34876;51.464;-0.150;2023-05-19T06:42:22;102654.49;;;19.67;41.84
49063;BME280;34876;51.464;-0.150;2023-05-19T06:44:52;102652.01;;;19.69;41.77
49063;BME280;34876;51.464;-0.150;2023-05-19T06:47:30;102651.67;;;19.67;41.79
49063;BME280;34876;51.464;-0.150;2023-05-19T06:50:01;102654.62;;;19.61;41.97
49063;BME280;34876;51.464;-0.150;2023-05-19T06:52:33;102654.15;;;19.58;42.03
49063;BME280;34876;51.464;-0.150;2023-05-19T06:55:03;102653.27;;;19.66;41.83
49063;BME280;34876;51.464;-0.150;2023-05-19T06:57:32;102648.13;;;19.71;41.74
49063;BME280;34876;51.464;-0.150;2023-05-19T07:00:03;102648.62;;;19.71;41.71
49063;BME280;34876;51.464;-0.150;2023-05-19T07:02:33;102654.08;;;19.65;41.88
49063;BME280;34876;51.464;-0.150;2023-05-19T07:05:02;102657.21;;;19.68;41.86
49063;BME280;34876;51.464;-0.150;2023-05-19T07:07:31;102663.08;;;19.67;41.89
49063;BME280;34876;51.464;-0.150;2023-05-19T07:10:00;102668.47;;;19.63;41.96
49063;BME280;34876;51.464;-0.150;2023-05-19T07:12:29;102669.68;;;19.64;41.97
49063;BME280;34876;51.464;-0.150;2023-05-19T07:15:00;102671.24;;;19.70;41.88
49063;BME280;34876;51.464;-0.150;2023-05-19T07:17:35;102674.83;;;19.71;41.84
49063;BME280;34876;51.464;-0.150;2023-05-19T07:20:05;102675.95;;;19.73;41.73
49063;BME280;34876;51.464;-0.150;2023-05-19T07:22:34;102675.24;;;19.71;41.80
49063;BME280;34876;51.464;-0.150;2023-05-19T07:25:02;102672.99;;;19.71;41.83
49063;BME280;34876;51.464;-0.150;2023-05-19T07:27:32;102671.76;;;19.71;41.86
49063;BME280;34876;51.464;-0.150;2023-05-19T07:30:02;102667.73;;;19.69;41.94
49063;BME280;34876;51.464;-0.150;2023-05-19T07:32:31;102670.23;;;19.71;41.87
49063;BME280;34876;51.464;-0.150;2023-05-19T07:35:01;102679.42;;;19.68;41.91
49063;BME280;34876;51.464;-0.150;2023-05-19T07:37:31;102680.99;;;19.66;41.95
49063;BME280;34876;51.464;-0.150;2023-05-19T07:40:00;102682.48;;;19.55;42.25
49063;BME280;34876;51.464;-0.150;2023-05-19T07:42:29;102687.92;;;19.69;42.00
49063;BME280;34876;51.464;-0.150;2023-05-19T07:44:58;102696.59;;;19.70;41.90
49063;BME280;34876;51.464;-0.150;2023-05-19T07:47:29;102698.57;;;19.70;41.92
49063;BME280;34876;51.464;-0.150;2023-05-19T07:49:58;102701.41;;;19.67;42.01
49063;BME280;34876;51.464;-0.150;2023-05-19T07:52:27;102704.23;;;19.70;41.94
49063;BME280;34876;51.464;-0.150;2023-05-19T07:54:57;102708.19;;;19.71;41.95
49063;BME280;34876;51.464;-0.150;2023-05-19T07:57:26;102711.78;;;19.73;41.86
49063;BME280;34876;51.464;-0.150;2023-05-19T07:59:56;102705.45;;;19.78;41.75
49063;BME280;34876;51.464;-0.150;2023-05-19T08:02:30;102700.21;;;19.79;41.81
49063;BME280;34876;51.464;-0.150;2023-05-19T08:05:00;102709.11;;;19.79;41.70
49063;BME280;34876;51.464;-0.150;2023-05-19T08:07:28;102712.99;;;19.81;41.67
49063;BME280;34876;51.464;-0.150;2023-05-19T08:09:57;102708.49;;;19.80;41.74
49063;BME280;34876;51.464;-0.150;2023-05-19T08:12:26;102704.93;;;19.82;41.66
49063;BME280;34876;51.464;-0.150;2023-05-19T08:14:55;102701.51;;;19.78;41.79
49063;BME280;34876;51.464;-0.150;2023-05-19T08:17:23;102693.56;;;19.81;41.70
49063;BME280;34876;51.464;-0.150;2023-05-19T08:19:53;102693.73;;;19.80;41.77
49063;BME280;34876;51.464;-0.150;2023-05-19T08:22:22;102698.28;;;19.78;41.81
49063;BME280;34876;51.464;-0.150;2023-05-19T08:24:52;102697.05;;;19.81;41.81
49063;BME280;34876;51.464;-0.150;2023-05-19T08:27:22;102688.93;;;19.71;41.95
49063;BME280;34876;51.464;-0.150;2023-05-19T08:29:53;102691.83;;;19.68;42.10
49063;BME280;34876;51.464;-0.150;2023-05-19T08:32:22;102703.62;;;19.77;41.87
49063;BME280;34876;51.464;-0.150;2023-05-19T08:35:01;102704.91;;;19.83;41.71
49063;BME280;34876;51.464;-0.150;2023-05-19T08:37:30;102704.27;;;19.76;41.88
49063;BME280;34876;51.464;-0.150;2023-05-19T08:39:59;102703.83;;;19.76;41.98
49063;BME280;34876;51.464;-0.150;2023-05-19T08:42:29;102695.90;;;19.80;41.80
49063;BME280;34876;51.464;-0.150;2023-05-19T08:45:01;102695.55;;;19.53;42.42
49063;BME280;34876;51.464;-0.150;2023-05-19T08:47:32;102702.71;;;19.36;42.77
49063;BME280;34876;51.464;-0.150;2023-05-19T08:50:03;102705.35;;;19.66;42.14
49063;BME280;34876;51.464;-0.150;2023-05-19T08:52:43;102708.51;;;19.73;42.02
49063;BME280;34876;51.464;-0.150;2023-05-19T08:55:24;102710.92;;;19.79;41.87
49063;BME280;34876;51.464;-0.150;2023-05-19T08:57:55;102718.95;;;19.81;41.82
49063;BME280;34876;51.464;-0.150;2023-05-19T09:00:25;102720.36;;;19.81;41.82
49063;BME280;34876;51.464;-0.150;2023-05-19T09:02:55;102733.00;;;19.80;41.82
49063;BME280;34876;51.464;-0.150;2023-05-19T09:05:25;102732.21;;;19.71;42.06
49063;BME280;34876;51.464;-0.150;2023-05-19T09:07:53;102724.89;;;19.83;41.80
49063;BME280;34876;51.464;-0.150;2023-05-19T09:10:22;102719.41;;;19.69;42.11
49063;BME280;34876;51.464;-0.150;2023-05-19T09:12:50;102713.38;;;19.79;41.89
49063;BME280;34876;51.464;-0.150;2023-05-19T09:15:25;102711.15;;;19.23;41.75
49063;BME280;34876;51.464;-0.150;2023-05-19T09:18:06;102697.29;;;19.64;42.20
49063;BME280;34876;51.464;-0.150;2023-05-19T09:20:36;102689.52;;;19.76;41.91
49063;BME280;34876;51.464;-0.150;2023-05-19T09:23:06;102682.85;;;19.36;41.67
49063;BME280;34876;51.464;-0.150;2023-05-19T09:25:36;102678.45;;;19.41;42.67
49063;BME280;34876;51.464;-0.150;2023-05-19T09:28:26;102680.26;;;19.48;42.12
49063;BME280;34876;51.464;-0.150;2023-05-19T09:30:59;102683.30;;;19.74;41.91
49063;BME280;34876;51.464;-0.150;2023-05-19T09:33:32;102690.42;;;19.50;41.88
49063;BME280;34876;51.464;-0.150;2023-05-19T09:36:02;102694.67;;;19.78;41.76
49063;BME280;34876;51.464;-0.150;2023-05-19T09:38:32;102697.28;;;19.77;41.77
49063;BME280;34876;51.464;-0.150;2023-05-19T09:41:02;102698.32;;;19.82;41.70
49063;BME280;34876;51.464;-0.150;2023-05-19T09:43:32;102693.75;;;19.83;41.66
49063;BME280;34876;51.464;-0.150;2023-05-19T09:46:06;102693.20;;;19.69;41.82
49063;BME280;34876;51.464;-0.150;2023-05-19T09:48:36;102698.05;;;19.25;42.40
49063;BME280;34876;51.464;-0.150;2023-05-19T09:51:11;102693.79;;;19.49;41.65
49063;BME280;34876;51.464;-0.150;2023-05-19T09:53:45;102696.74;;;19.37;42.40
49063;BME280;34876;51.464;-0.150;2023-05-19T09:56:15;102705.88;;;18.74;39.10
49063;BME280;34876;51.464;-0.150;2023-05-19T09:58:51;102706.59;;;18.92;42.28
49063;BME280;34876;51.464;-0.150;2023-05-19T10:01:20;102704.27;;;18.67;43.50
49063;BME280;34876;51.464;-0.150;2023-05-19T10:03:50;102707.14;;;18.92;42.64
49063;BME280;34876;51.464;-0.150;2023-05-19T10:06:21;102707.33;;;18.67;43.34
49063;BME280;34876;51.464;-0.150;2023-05-19T10:08:51;102709.48;;;18.73;43.19
49063;BME280;34876;51.464;-0.150;2023-05-19T10:11:21;102708.60;;;19.00;40.90
49063;BME280;34876;51.464;-0.150;2023-05-19T10:13:52;102704.77;;;18.51;42.72
49063;BME280;34876;51.464;-0.150;2023-05-19T10:16:35;102705.03;;;18.52;42.98
49063;BME280;34876;51.464;-0.150;2023-05-19T10:19:06;102706.53;;;18.72;42.52
49063;BME280;34876;51.464;-0.150;2023-05-19T10:21:36;102701.88;;;19.12;40.33
49063;BME280;34876;51.464;-0.150;2023-05-19T10:24:06;102706.71;;;18.34;43.81
49063;BME280;34876;51.464;-0.150;2023-05-19T10:26:36;102706.11;;;18.78;39.35
49063;BME280;34876;51.464;-0.150;2023-05-19T10:29:16;102703.75;;;18.95;42.73
49063;BME280;34876;51.464;-0.150;2023-05-19T10:31:50;102704.35;;;18.79;39.98
49063;BME280;34876;51.464;-0.150;2023-05-19T10:34:45;102702.93;;;18.79;43.10
49063;BME280;34876;51.464;-0.150;2023-05-19T10:37:38;102701.94;;;19.32;41.96
49063;BME280;34876;51.464;-0.150;2023-05-19T10:40:17;102700.68;;;19.29;41.90
49063;BME280;34876;51.464;-0.150;2023-05-19T10:43:12;102692.21;;;19.09;42.44
49063;BME280;34876;51.464;-0.150;2023-05-19T10:45:51;102690.53;;;19.15;42.35
49063;BME280;34876;51.464;-0.150;2023-05-19T10:48:24;102690.15;;;18.94;41.74
49063;BME280;34876;51.464;-0.150;2023-05-19T10:50:55;102682.79;;;18.56;43.43
49063;BME280;34876;51.464;-0.150;2023-05-19T10:53:30;102677.25;;;19.34;42.01
49063;BME280;34876;51.464;-0.150;2023-05-19T10:56:01;102679.73;;;18.71;42.66
49063;BME280;34876;51.464;-0.150;2023-05-19T10:58:48;102672.70;;;19.18;42.44
49063;BME280;34876;51.464;-0.150;2023-05-19T11:01:19;102669.60;;;19.53;41.64
49063;BME280;34876;51.464;-0.150;2023-05-19T11:03:50;102670.70;;;19.58;41.26
49063;BME280;34876;51.464;-0.150;2023-05-19T11:06:30;102668.43;;;19.01;42.68
49063;BME280;34876;51.464;-0.150;2023-05-19T11:09:11;102669.51;;;19.36;42.11
49063;BME280;34876;51.464;-0.150;2023-05-19T11:11:46;102672.79;;;18.53;43.84
49063;BME280;34876;51.464;-0.150;2023-05-19T11:14:22;102666.19;;;19.27;42.42
49063;BME280;34876;51.464;-0.150;2023-05-19T11:16:56;102666.29;;;19.05;42.90
49063;BME280;34876;51.464;-0.150;2023-05-19T11:19:27;102661.74;;;19.12;42.80
49063;BME280;34876;51.464;-0.150;2023-05-19T11:21:57;102658.86;;;19.22;42.64
49063;BME280;34876;51.464;-0.150;2023-05-19T11:24:36;102662.85;;;18.37;44.70
49063;BME280;34876;51.464;-0.150;2023-05-19T11:27:37;102659.49;;;18.28;44.77
49063;BME280;34876;51.464;-0.150;2023-05-19T11:30:09;102651.51;;;18.88;43.55
49063;BME280;34876;51.464;-0.150;2023-05-19T11:32:41;102647.95;;;18.12;45.29
49063;BME280;34876;51.464;-0.150;2023-05-19T11:35:17;102644.38;;;18.51;43.71
49063;BME280;34876;51.464;-0.150;2023-05-19T11:37:48;102646.36;;;18.33;44.11
49063;BME280;34876;51.464;-0.150;2023-05-19T11:40:17;102641.94;;;19.12;43.01
49063;BME280;34876;51.464;-0.150;2023-05-19T11:42:47;102643.21;;;19.20;42.80
49063;BME280;34876;51.464;-0.150;2023-05-19T11:45:16;102643.29;;;19.23;42.75
49063;BME280;34876;51.464;-0.150;2023-05-19T11:47:46;102646.38;;;18.81;42.84
49063;BME280;34876;51.464;-0.150;2023-05-19T11:50:15;102644.73;;;18.47;44.29
49063;BME280;34876;51.464;-0.150;2023-05-19T11:52:49;102641.68;;;18.81;43.60
49063;BME280;34876;51.464;-0.150;2023-05-19T11:55:20;102641.97;;;18.66;43.78
49063;BME280;34876;51.464;-0.150;2023-05-19T11:57:58;102636.87;;;18.68;43.69
49063;BME280;34876;51.464;-0.150;2023-05-19T12:00:33;102632.25;;;19.09;42.32
49063;BME280;34876;51.464;-0.150;2023-05-19T12:03:03;102630.68;;;18.97;43.03
49063;BME280;34876;51.464;-0.150;2023-05-19T12:05:36;102626.45;;;19.41;42.23
49063;BME280;34876;51.464;-0.150;2023-05-19T12:08:06;102627.44;;;18.67;42.03
49063;BME280;34876;51.464;-0.150;2023-05-19T12:10:37;102622.46;;;18.93;42.45
49063;BME280;34876;51.464;-0.150;2023-05-19T12:13:07;102621.48;;;17.74;43.50
49063;BME280;34876;51.464;-0.150;2023-05-19T12:15:41;102616.90;;;18.54;43.23
49063;BME280;34876;51.464;-0.150;2023-05-19T12:18:11;102614.92;;;17.98;44.21
49063;BME280;34876;51.464;-0.150;2023-05-19T12:20:40;102616.64;;;18.01;42.93
49063;BME280;34876;51.464;-0.150;2023-05-19T12:23:10;102615.19;;;18.66;43.80
49063;BME280;34876;51.464;-0.150;2023-05-19T12:25:39;102613.50;;;18.83;42.99
49063;BME280;34876;51.464;-0.150;2023-05-19T12:28:09;102617.82;;;18.47;42.82
49063;BME280;34876;51.464;-0.150;2023-05-19T12:30:38;102615.39;;;18.31;42.97
49063;BME280;34876;51.464;-0.150;2023-05-19T12:33:07;102612.24;;;18.25;44.47
49063;BME280;34876;51.464;-0.150;2023-05-19T12:35:37;102616.33;;;18.61;43.50
49063;BME280;34876;51.464;-0.150;2023-05-19T12:38:06;102614.54;;;18.71;43.62
49063;BME280;34876;51.464;-0.150;2023-05-19T12:40:36;102612.46;;;18.63;43.90
49063;BME280;34876;51.464;-0.150;2023-05-19T12:43:07;102614.28;;;18.33;44.33
49063;BME280;34876;51.464;-0.150;2023-05-19T12:45:36;102613.24;;;18.92;43.26
49063;BME280;34876;51.464;-0.150;2023-05-19T12:48:11;102610.28;;;18.63;43.93
49063;BME280;34876;51.464;-0.150;2023-05-19T12:50:42;102613.95;;;18.62;43.42
49063;BME280;34876;51.464;-0.150;2023-05-19T12:53:11;102607.90;;;19.19;42.74
49063;BME280;34876;51.464;-0.150;2023-05-19T12:55:43;102614.55;;;19.01;43.80
49063;BME280;34876;51.464;-0.150;2023-05-19T12:58:14;102616.45;;;19.05;43.34
49063;BME280;34876;51.464;-0.150;2023-05-19T13:00:49;102614.54;;;18.71;44.53
49063;BME280;34876;51.464;-0.150;2023-05-19T13:03:20;102614.22;;;19.39;42.40
49063;BME280;34876;51.464;-0.150;2023-05-19T13:05:49;102605.88;;;19.54;41.99
49063;BME280;34876;51.464;-0.150;2023-05-19T13:08:20;102602.05;;;19.73;41.58